createdAt,value
2023-01-27T00:02:13.765Z,13.25
2023-01-27T00:05:01.428Z,13.60
2023-01-27T00:07:49.796Z,12.70
2023-01-27T00:10:37.680Z,12.55
2023-01-27T00:13:28.028Z,12.33
2023-01-27T00:16:15.144Z,13.03
2023-01-27T00:19:02.784Z,12.98
2023-01-27T00:22:07.791Z,13.00
2023-01-27T00:24:54.962Z,13.00
2023-01-27T00:27:42.011Z,12.60
2023-01-27T00:30:29.222Z,12.73
2023-01-27T00:33:25.894Z,13.53
2023-01-27T00:36:12.944Z,12.47
2023-01-27T00:39:00.613Z,13.40
2023-01-27T00:41:47.759Z,12.18
2023-01-27T00:44:35.004Z,13.32
2023-01-27T00:47:22.463Z,12.80
2023-01-27T00:50:10.627Z,11.85
2023-01-27T00:52:58.967Z,12.18
2023-01-27T00:55:47.381Z,10.15
2023-01-27T00:58:34.534Z,8.58
2023-01-27T01:01:21.938Z,6.42
2023-01-27T01:04:09.490Z,6.83
2023-01-27T01:06:56.732Z,6.05
2023-01-27T01:09:44.165Z,5.87
2023-01-27T01:12:31.435Z,6.17
2023-01-27T01:15:18.875Z,6.17
2023-01-27T01:18:07.308Z,6.67
2023-01-27T01:20:54.943Z,5.90
2023-01-27T01:23:44.483Z,6.20
2023-01-27T01:26:31.691Z,5.78
2023-01-27T01:29:18.915Z,5.97
2023-01-27T01:32:08.396Z,5.08
2023-01-27T01:34:55.678Z,5.28
2023-01-27T01:37:43.220Z,5.37
2023-01-27T01:40:31.186Z,5.08
2023-01-27T01:43:20.943Z,4.95
2023-01-27T01:46:10.759Z,4.25
2023-01-27T01:49:00.989Z,4.28
2023-01-27T01:51:51.178Z,4.60
2023-01-27T01:54:44.489Z,4.87
2023-01-27T01:57:36.111Z,3.60
2023-01-27T02:00:23.606Z,4.37
2023-01-27T02:03:11.269Z,4.17
2023-01-27T02:05:59.439Z,4.08
2023-01-27T02:08:49.302Z,4.25
2023-01-27T02:11:36.462Z,4.75
2023-01-27T02:14:23.583Z,5.05
2023-01-27T02:17:13.333Z,5.00
2023-01-27T02:20:10.799Z,4.80
2023-01-27T02:23:27.680Z,5.08
2023-01-27T02:26:38.855Z,4.70
2023-01-27T02:29:26.126Z,4.92
2023-01-27T02:32:27.341Z,4.40
2023-01-27T02:35:17.658Z,5.03
2023-01-27T02:38:06.931Z,4.17
2023-01-27T02:40:57.491Z,3.98
2023-01-27T02:43:44.945Z,4.47
2023-01-27T02:46:32.084Z,3.85
2023-01-27T02:49:19.488Z,4.78
2023-01-27T02:52:06.685Z,4.20
2023-01-27T02:54:53.832Z,4.37
2023-01-27T02:57:41.149Z,5.15
2023-01-27T03:00:28.620Z,5.25
2023-01-27T03:03:16.034Z,5.03
2023-01-27T03:06:03.406Z,4.62
2023-01-27T03:08:50.859Z,5.17
2023-01-27T03:11:55.992Z,5.12
2023-01-27T03:15:01.458Z,4.80
2023-01-27T03:18:06.832Z,5.60
2023-01-27T03:20:57.006Z,4.95
2023-01-27T03:23:45.640Z,5.15
2023-01-27T03:26:32.650Z,5.33
2023-01-27T03:29:37.966Z,6.00
2023-01-27T03:32:30.300Z,6.08
2023-01-27T03:35:17.930Z,5.55
2023-01-27T03:38:27.772Z,5.87
2023-01-27T03:41:33.441Z,5.70
2023-01-27T03:44:38.794Z,6.65
2023-01-27T03:47:27.829Z,6.50
2023-01-27T03:50:16.914Z,6.92
2023-01-27T03:53:04.679Z,7.00
2023-01-27T03:55:53.747Z,7.30
2023-01-27T03:58:41.161Z,6.62
2023-01-27T04:01:28.406Z,6.47
2023-01-27T04:04:33.074Z,6.80
2023-01-27T04:07:20.466Z,6.85
2023-01-27T04:10:07.917Z,6.00
2023-01-27T04:12:55.582Z,6.97
2023-01-27T04:15:43.089Z,5.80
2023-01-27T04:18:30.603Z,5.80
2023-01-27T04:21:17.926Z,5.67
2023-01-27T04:24:07.743Z,6.45
2023-01-27T04:26:58.342Z,6.12
2023-01-27T04:29:45.731Z,6.35
2023-01-27T04:32:32.859Z,5.33
2023-01-27T04:35:23.351Z,5.65
2023-01-27T04:38:09.043Z,6.28
2023-01-27T04:40:56.159Z,5.20
2023-01-27T04:43:43.521Z,5.78
2023-01-27T04:46:30.764Z,5.65
2023-01-27T04:49:18.930Z,5.22
2023-01-27T04:52:06.589Z,5.37
2023-01-27T04:54:53.830Z,4.62
2023-01-27T04:57:40.905Z,4.85
2023-01-27T05:00:28.364Z,4.75
2023-01-27T05:03:15.709Z,4.72
2023-01-27T05:06:02.716Z,4.47
2023-01-27T05:08:49.744Z,4.47
2023-01-27T05:11:37.036Z,4.80
2023-01-27T05:14:24.003Z,4.25
2023-01-27T05:17:11.381Z,4.78
2023-01-27T05:19:59.063Z,4.08
2023-01-27T05:22:46.320Z,3.98
2023-01-27T05:25:33.403Z,3.42
2023-01-27T05:28:20.482Z,4.05
2023-01-27T05:31:13.962Z,4.03
2023-01-27T05:34:02.821Z,4.25
2023-01-27T05:36:51.432Z,4.60
2023-01-27T05:39:38.939Z,4.50
2023-01-27T05:42:26.144Z,4.62
2023-01-27T05:45:13.697Z,5.10
2023-01-27T05:48:00.835Z,4.35
2023-01-27T05:50:55.936Z,4.12
2023-01-27T05:53:43.540Z,4.78
2023-01-27T05:56:30.900Z,4.87
2023-01-27T05:59:18.147Z,5.10
2023-01-27T06:02:06.027Z,4.87
2023-01-27T06:04:53.450Z,5.20
2023-01-27T06:07:40.655Z,5.47
2023-01-27T06:10:28.207Z,5.22
2023-01-27T06:13:15.303Z,5.00
2023-01-27T06:16:04.799Z,5.15
2023-01-27T06:18:52.321Z,5.55
2023-01-27T06:21:39.669Z,5.12
2023-01-27T06:24:26.678Z,4.80
2023-01-27T06:27:13.675Z,5.95
2023-01-27T06:30:01.271Z,5.15
2023-01-27T06:32:48.423Z,6.08
2023-01-27T06:35:37.257Z,5.25
2023-01-27T06:38:24.754Z,5.95
2023-01-27T06:41:12.244Z,5.20
2023-01-27T06:43:59.836Z,5.67
2023-01-27T06:46:47.384Z,5.58
2023-01-27T06:49:34.835Z,5.92
2023-01-27T06:52:21.701Z,5.50
2023-01-27T06:55:09.067Z,5.20
2023-01-27T06:57:56.558Z,5.55
2023-01-27T07:00:44.453Z,5.40
2023-01-27T07:03:31.942Z,5.40
2023-01-27T07:06:20.095Z,5.33
2023-01-27T07:09:07.043Z,5.45
2023-01-27T07:11:54.336Z,5.17
2023-01-27T07:14:41.799Z,5.15
2023-01-27T07:17:30.152Z,4.92
2023-01-27T07:20:17.722Z,4.33
2023-01-27T07:23:06.376Z,5.10
2023-01-27T07:25:53.390Z,5.42
2023-01-27T07:28:40.726Z,5.35
2023-01-27T07:31:28.281Z,5.62
2023-01-27T07:34:15.685Z,4.60
2023-01-27T07:37:04.744Z,4.83
2023-01-27T07:39:51.780Z,5.10
2023-01-27T07:42:39.274Z,4.83
2023-01-27T07:45:26.828Z,4.75
2023-01-27T07:48:14.369Z,5.47
2023-01-27T07:51:01.726Z,4.87
2023-01-27T07:53:48.663Z,4.85
2023-01-27T07:56:36.449Z,4.92
2023-01-27T07:59:23.389Z,4.67
2023-01-27T08:02:11.904Z,4.80
2023-01-27T08:04:59.393Z,4.12
2023-01-27T08:07:46.649Z,4.17
2023-01-27T08:10:34.349Z,4.15
2023-01-27T08:13:21.694Z,4.30
2023-01-27T08:16:11.228Z,4.60
2023-01-27T08:18:59.313Z,4.85
2023-01-27T08:21:46.595Z,4.42
2023-01-27T08:24:33.582Z,4.17
2023-01-27T08:27:20.897Z,4.03
2023-01-27T08:30:08.990Z,4.53
2023-01-27T08:32:56.625Z,4.60
2023-01-27T08:35:44.740Z,5.10
2023-01-27T08:38:32.038Z,4.33
2023-01-27T08:41:24.745Z,4.03
2023-01-27T08:44:12.297Z,3.80
2023-01-27T08:46:59.404Z,4.10
2023-01-27T08:49:47.896Z,4.37
2023-01-27T08:52:34.931Z,3.75
2023-01-27T08:55:22.168Z,4.25
2023-01-27T08:58:09.591Z,4.03
2023-01-27T09:00:58.423Z,4.25
2023-01-27T09:03:45.569Z,4.87
2023-01-27T09:06:33.248Z,4.40
2023-01-27T09:09:20.546Z,4.03
2023-01-27T09:12:07.821Z,4.08
2023-01-27T09:14:56.987Z,3.75
2023-01-27T09:17:44.673Z,4.00
2023-01-27T09:20:33.589Z,3.85
2023-01-27T09:23:20.815Z,4.78
2023-01-27T09:26:08.011Z,3.83
2023-01-27T09:28:55.566Z,3.62
2023-01-27T09:31:42.859Z,4.30
2023-01-27T09:34:31.070Z,4.25
2023-01-27T09:37:19.657Z,4.35
2023-01-27T09:40:10.455Z,3.45
2023-01-27T09:43:17.378Z,3.75
2023-01-27T09:46:22.116Z,3.60
2023-01-27T09:49:12.461Z,4.08
2023-01-27T09:52:22.012Z,3.80
2023-01-27T09:55:24.386Z,3.80
2023-01-27T09:58:42.875Z,3.83
2023-01-27T10:01:59.811Z,4.25
2023-01-27T10:05:06.501Z,3.00
2023-01-27T10:07:59.632Z,4.37
2023-01-27T10:11:08.907Z,3.60
2023-01-27T10:14:05.457Z,3.00
2023-01-27T10:17:07.530Z,2.12
2023-01-27T10:20:13.781Z,2.92
2023-01-27T10:23:09.745Z,3.10
2023-01-27T10:26:21.000Z,2.77
2023-01-27T10:29:11.313Z,3.02
2023-01-27T10:32:01.887Z,3.12
2023-01-27T10:34:54.635Z,3.33
2023-01-27T10:38:04.755Z,5.78
2023-01-27T10:41:00.916Z,2.95
2023-01-27T10:44:08.858Z,2.37
2023-01-27T10:47:01.633Z,2.90
2023-01-27T10:49:51.756Z,2.90
2023-01-27T10:52:47.712Z,3.17
2023-01-27T10:55:37.729Z,2.83
2023-01-27T10:58:45.832Z,2.60
2023-01-27T11:01:38.831Z,2.62
2023-01-27T11:04:41.225Z,2.95
2023-01-27T11:07:29.951Z,2.90
2023-01-27T11:10:19.956Z,2.85
2023-01-27T11:13:09.973Z,2.90
2023-01-27T11:15:59.389Z,2.50
2023-01-27T11:18:48.326Z,1.98
2023-01-27T11:21:35.312Z,1.85
2023-01-27T11:24:28.793Z,1.90
2023-01-27T11:27:18.830Z,1.87
2023-01-27T11:30:18.367Z,1.72
2023-01-27T11:33:24.987Z,1.60
2023-01-27T11:36:12.468Z,1.70
2023-01-27T11:39:01.602Z,2.05
2023-01-27T11:41:55.587Z,2.20
2023-01-27T11:44:44.534Z,1.80
2023-01-27T11:47:34.588Z,2.05
2023-01-27T11:50:24.769Z,1.90
2023-01-27T11:53:30.089Z,1.87
2023-01-27T11:56:19.984Z,1.80
2023-01-27T11:59:10.303Z,2.05
2023-01-27T12:02:03.721Z,2.47
2023-01-27T12:05:08.969Z,2.33
2023-01-27T12:08:01.902Z,2.45
2023-01-27T12:10:48.930Z,2.10
2023-01-27T12:13:36.062Z,2.10
2023-01-27T12:16:35.805Z,1.92
2023-01-27T12:19:31.976Z,1.90
2023-01-27T12:22:27.685Z,2.42
2023-01-27T12:25:18.012Z,1.92
2023-01-27T12:28:06.315Z,1.70
2023-01-27T12:30:56.239Z,1.72
2023-01-27T12:33:47.912Z,1.32
2023-01-27T12:36:40.984Z,1.17
2023-01-27T12:39:37.131Z,1.42
2023-01-27T12:42:46.251Z,1.17
2023-01-27T12:45:38.341Z,1.27
2023-01-27T12:48:26.147Z,1.60
2023-01-27T12:51:22.452Z,1.20
2023-01-27T12:54:27.412Z,1.27
2023-01-27T12:57:18.235Z,1.10
2023-01-27T13:00:06.309Z,1.20
2023-01-27T13:02:55.745Z,1.17
2023-01-27T13:05:45.325Z,1.10
2023-01-27T13:08:34.432Z,1.20
2023-01-27T13:11:24.713Z,1.10
2023-01-27T13:14:14.848Z,1.00
2023-01-27T13:17:04.238Z,0.85
2023-01-27T13:19:54.405Z,0.90
2023-01-27T13:22:44.504Z,1.75
2023-01-27T13:25:43.903Z,1.05
2023-01-27T13:28:51.327Z,1.55
2023-01-27T13:32:00.532Z,1.12
2023-01-27T13:35:10.511Z,1.25
2023-01-27T13:38:06.915Z,1.00
2023-01-27T13:40:54.389Z,1.10
2023-01-27T13:43:43.843Z,1.40
2023-01-27T13:46:34.254Z,1.50
2023-01-27T13:49:33.106Z,1.37
2023-01-27T13:52:20.151Z,1.17
2023-01-27T13:55:10.658Z,1.37
2023-01-27T13:58:03.351Z,1.20
2023-01-27T14:01:03.155Z,1.20
2023-01-27T14:04:17.399Z,1.30
2023-01-27T14:07:17.061Z,1.12
2023-01-27T14:10:24.553Z,1.10
2023-01-27T14:16:20.149Z,0.90
2023-01-27T14:19:33.115Z,0.80
2023-01-27T14:22:29.143Z,0.90
2023-01-27T14:25:28.043Z,1.10
2023-01-27T14:28:18.054Z,1.10
2023-01-27T14:31:14.210Z,0.90
2023-01-27T14:34:25.873Z,0.97
2023-01-27T14:37:28.159Z,0.93
2023-01-27T14:40:36.016Z,0.88
2023-01-27T14:43:44.135Z,0.90
2023-01-27T14:46:43.153Z,1.07
2023-01-27T14:49:51.148Z,1.00
2023-01-27T14:52:44.204Z,1.90
2023-01-27T14:56:07.304Z,8.63
2023-01-27T14:59:27.549Z,2.40
2023-01-27T15:02:29.907Z,3.58
2023-01-27T15:05:25.782Z,5.78
2023-01-27T15:08:21.913Z,4.30
2023-01-27T15:11:31.221Z,7.78
2023-01-27T15:14:40.801Z,3.75
2023-01-27T15:17:53.147Z,2.62
2023-01-27T15:20:43.623Z,6.15
2023-01-27T15:23:42.588Z,5.37
2023-01-27T15:26:32.275Z,4.72
2023-01-27T15:29:22.774Z,2.72
2023-01-27T15:32:15.824Z,2.90
2023-01-27T15:35:27.089Z,4.50
2023-01-27T15:38:17.221Z,9.03
2023-01-27T15:41:16.075Z,9.68
2023-01-27T15:44:18.003Z,3.02
2023-01-27T15:47:14.139Z,2.02
2023-01-27T15:50:22.638Z,2.70
2023-01-27T15:53:18.172Z,2.62
2023-01-27T15:56:06.553Z,2.40
2023-01-27T15:58:58.976Z,2.25
2023-01-27T16:01:49.149Z,2.40
2023-01-27T16:04:36.118Z,1.65
2023-01-27T16:07:30.397Z,1.90
2023-01-27T16:10:20.676Z,2.40
2023-01-27T16:13:27.837Z,2.30
2023-01-27T16:19:20.538Z,1.65
2023-01-27T16:22:13.250Z,1.75
2023-01-27T16:25:22.717Z,2.65
2023-01-27T16:28:27.556Z,2.33
2023-01-27T16:31:28.836Z,2.42
2023-01-27T16:34:26.021Z,2.00
2023-01-27T16:37:19.146Z,2.15
2023-01-27T16:40:23.931Z,1.42
2023-01-27T16:43:19.919Z,2.00
2023-01-27T16:46:09.178Z,1.60
2023-01-27T16:48:56.970Z,2.22
2023-01-27T16:51:44.858Z,1.87
2023-01-27T16:54:43.532Z,1.75
2023-01-27T16:57:38.864Z,2.42
2023-01-27T17:00:32.290Z,1.82
2023-01-27T17:03:23.134Z,2.15
2023-01-27T17:06:14.047Z,1.85
2023-01-27T17:09:02.461Z,1.87
2023-01-27T17:11:49.599Z,1.82
2023-01-27T17:14:42.523Z,1.85
2023-01-27T17:17:32.943Z,1.82
2023-01-27T17:20:35.481Z,2.15
2023-01-27T17:23:25.719Z,2.20
2023-01-27T17:26:18.472Z,2.15
2023-01-27T17:29:06.073Z,2.47
2023-01-27T17:31:53.744Z,2.10
2023-01-27T17:34:42.351Z,2.20
2023-01-27T17:37:31.868Z,2.15
2023-01-27T17:40:22.105Z,2.70
2023-01-27T17:43:31.708Z,2.90
2023-01-27T17:46:24.683Z,2.33
2023-01-27T17:49:17.940Z,2.20
2023-01-27T17:52:08.272Z,2.17
2023-01-27T17:54:56.006Z,2.20
2023-01-27T17:57:44.371Z,2.45
2023-01-27T18:00:34.584Z,2.65
2023-01-27T18:03:27.787Z,2.30
2023-01-27T18:06:16.806Z,1.95
2023-01-27T18:09:07.368Z,2.25
2023-01-27T18:12:01.084Z,2.37
2023-01-27T18:14:48.493Z,2.30
2023-01-27T18:17:35.901Z,2.45
2023-01-27T18:20:36.878Z,2.00
2023-01-27T18:23:29.496Z,2.00
2023-01-27T18:26:22.986Z,2.27
2023-01-27T18:29:20.479Z,2.20
2023-01-27T18:32:23.655Z,3.20
2023-01-27T18:35:29.227Z,2.40
2023-01-27T18:38:30.284Z,2.12
2023-01-27T18:41:27.749Z,3.08
2023-01-27T18:44:16.546Z,2.08
2023-01-27T18:47:21.933Z,2.40
2023-01-27T18:50:21.738Z,2.30
2023-01-27T18:53:18.271Z,2.67
2023-01-27T18:56:07.136Z,2.50
2023-01-27T18:58:55.981Z,2.83
2023-01-27T19:01:43.043Z,2.60
2023-01-27T19:04:30.146Z,2.90
2023-01-27T19:07:18.889Z,2.70
2023-01-27T19:10:09.115Z,2.85
2023-01-27T19:12:59.514Z,3.10
2023-01-27T19:15:52.834Z,3.20
2023-01-27T19:18:41.921Z,3.45
2023-01-27T19:21:29.583Z,3.50
2023-01-27T19:24:16.654Z,2.50
2023-01-27T19:27:04.719Z,2.62
2023-01-27T19:29:52.013Z,2.92
2023-01-27T19:32:39.085Z,2.83
2023-01-27T19:35:29.588Z,2.75
2023-01-27T19:38:17.078Z,3.00
2023-01-27T19:41:04.348Z,2.95
2023-01-27T19:43:51.818Z,2.85
2023-01-27T19:46:40.944Z,2.92
2023-01-27T19:49:27.963Z,2.80
2023-01-27T19:52:14.983Z,2.80
2023-01-27T19:55:01.875Z,2.75
2023-01-27T19:57:50.360Z,2.92
2023-01-27T20:00:38.025Z,2.47
2023-01-27T20:03:25.340Z,2.40
2023-01-27T20:06:15.849Z,2.70
2023-01-27T20:09:03.543Z,2.45
2023-01-27T20:11:50.550Z,3.20
2023-01-27T20:14:37.512Z,3.05
2023-01-27T20:17:24.758Z,2.40
2023-01-27T20:20:14.028Z,2.60
2023-01-27T20:23:01.166Z,2.85
2023-01-27T20:25:48.407Z,3.15
2023-01-27T20:28:35.850Z,2.60
2023-01-27T20:31:23.790Z,2.60
2023-01-27T20:34:10.805Z,2.65
2023-01-27T20:36:58.146Z,2.50
2023-01-27T20:39:45.605Z,2.52
2023-01-27T20:42:32.779Z,2.60
2023-01-27T20:45:20.699Z,3.00
2023-01-27T20:48:07.824Z,2.72
2023-01-27T20:51:12.999Z,2.90
2023-01-27T20:54:00.694Z,2.77
2023-01-27T20:56:47.782Z,2.30
2023-01-27T20:59:34.987Z,2.40
2023-01-27T21:02:22.261Z,2.20
2023-01-27T21:05:09.908Z,2.20
2023-01-27T21:07:57.727Z,2.60
2023-01-27T21:10:45.034Z,2.45
2023-01-27T21:13:32.544Z,2.72
2023-01-27T21:16:19.972Z,2.65
2023-01-27T21:19:08.138Z,2.98
2023-01-27T21:21:55.810Z,2.47
2023-01-27T21:24:46.226Z,2.70
2023-01-27T21:27:33.718Z,3.00
2023-01-27T21:30:21.140Z,2.62
2023-01-27T21:33:08.460Z,2.40
2023-01-27T21:35:57.227Z,2.55
2023-01-27T21:38:44.646Z,2.80
2023-01-27T21:41:50.775Z,2.83
2023-01-27T21:44:55.954Z,2.37
2023-01-27T21:47:44.006Z,2.55
2023-01-27T21:50:30.930Z,2.25
2023-01-27T21:53:18.027Z,2.70
2023-01-27T21:56:08.639Z,2.67
2023-01-27T21:58:57.198Z,2.95
2023-01-27T22:01:44.672Z,4.03
2023-01-27T22:04:32.066Z,2.77
2023-01-27T22:07:20.016Z,2.83
2023-01-27T22:10:13.617Z,2.60
2023-01-27T22:13:07.528Z,1.98
2023-01-27T22:15:54.943Z,2.67
2023-01-27T22:18:43.813Z,2.42
2023-01-27T22:21:31.309Z,2.45
2023-01-27T22:24:18.397Z,2.87
2023-01-27T22:27:05.666Z,2.72
2023-01-27T22:29:53.066Z,2.40
2023-01-27T22:32:40.149Z,2.45
2023-01-27T22:35:27.151Z,2.30
2023-01-27T22:38:14.600Z,2.45
2023-01-27T22:41:01.938Z,2.40
2023-01-27T22:43:50.894Z,2.95
2023-01-27T22:46:40.056Z,2.42
2023-01-27T22:49:27.159Z,2.60
2023-01-27T22:52:15.966Z,2.45
2023-01-27T22:55:04.867Z,2.30
2023-01-27T22:57:51.967Z,2.45
2023-01-27T23:00:39.416Z,2.45
2023-01-27T23:03:26.774Z,2.40
2023-01-27T23:06:14.160Z,2.55
2023-01-27T23:09:01.391Z,2.22
2023-01-27T23:11:48.832Z,2.60
2023-01-27T23:14:36.412Z,2.20
2023-01-27T23:17:23.510Z,2.20
2023-01-27T23:20:11.790Z,2.30
2023-01-27T23:22:59.248Z,2.00
2023-01-27T23:25:48.213Z,2.30
2023-01-27T23:28:36.079Z,2.52
2023-01-27T23:31:23.299Z,2.12
2023-01-27T23:34:11.030Z,1.92
2023-01-27T23:36:58.333Z,2.37
2023-01-27T23:39:47.049Z,2.08
2023-01-27T23:42:34.413Z,2.60
2023-01-27T23:45:21.574Z,2.27
2023-01-27T23:48:08.891Z,2.58
2023-01-27T23:50:56.279Z,2.52
2023-01-27T23:53:43.578Z,2.27
2023-01-27T23:56:30.924Z,2.58
2023-01-27T23:59:18.167Z,2.50
